Nearby METAR Reports

 

KMLP - Mullan Pass, Idaho, USA
Distance from station: NE 41mi, 66km
Updated: Sat, 18-Sep-2021 5:53pm PDT
Light rain, Mist, Overcast
Light rain, Mist, Overcast
 Wind from SW
Wind: SW 9 mph , 15 km/h, Gust: 31 mph , 50 km/h
Temperature: 41°F , 5°C
Wind Chill: 35°F , 2°C
Dew Point: 37°F , 3°C
Humidity: 87%
Barometer: 29.83 inHg , 1010.2 hPa
Summary: Light rain, Mist
Clouds: Overcast
Visibility: 1 1/2 miles , 2.4 km
Cloud details: Partly Cloudy 400 ft
Mostly Cloudy 900 ft
Overcast 2500 ft
2021/09/19 00:53 KMLP 190053Z AUTO 22008G27KT 1 1/2SM -RA BR SCT004 BKN009 OVC025 05/03 A2983 RMK AO2 PK WND 21030/0022 RAB30 SLP031 P0005 T00500033 $
KPUW - Pullman/Moscow, Washington, USA
Distance from station: SW 42mi, 68km
Updated: Sat, 18-Sep-2021 5:53pm PDT
Mostly Cloudy
Mostly Cloudy
 Wind from S
Wind: S 7 mph , 11 km/h
Temperature: 55°F , 13°C
Dew Point: 50°F , 10°C
Humidity: 82%
Barometer: 29.83 inHg , 1010.2 hPa
Clouds: Mostly Cloudy
Visibility: 10 miles , 16 km
Cloud details: Few Clouds 3100 ft
Partly Cloudy 4100 ft
Mostly Cloudy 6000 ft
2021/09/19 00:53 KPUW 190053Z AUTO 18006KT 10SM FEW031 SCT041 BKN060 13/10 A2983 RMK AO2 RAB2354E51 SLP094 P0002 T01280100
 
KCOE - Coeur D'alene, Idaho, USA
Distance from station: NNW 49mi, 79km
Updated: Sat, 18-Sep-2021 5:56pm PDT
Rain, Overcast
Rain, Overcast
 Wind from S
Wind: S 9 mph , 15 km/h
Temperature: 52°F , 11°C
Dew Point: 48°F , 9°C
Humidity: 88%
Barometer: 29.79 inHg , 1008.8 hPa
Summary: Rain
Clouds: Overcast
Visibility: 8 miles , 13 km
Cloud details: Mostly Cloudy 2100 ft
Overcast 2700 ft
2021/09/19 00:56 KCOE 190056Z AUTO 19008KT 8SM RA BKN021 OVC027 11/09 A2979 RMK AO2 SLP106 T01110094 PNO $
KSFF - Spokane/Felts, Washington, USA
Distance from station: NW 59mi, 94km
Updated: Sat, 18-Sep-2021 5:53pm PDT
Light rain, Mist, Overcast
Light rain, Mist, Overcast
 Wind from WSW
Wind: WSW 7 mph , 11 km/h
Temperature: 54°F , 12°C
Dew Point: 52°F , 11°C
Humidity: 94%
Barometer: 29.79 inHg , 1008.8 hPa
Summary: Light rain, Mist
Clouds: Overcast
Visibility: 5 miles , 8 km
Cloud details: Mostly Cloudy 1200 ft
Overcast 2200 ft
2021/09/19 00:53 KSFF 190053Z 25006KT 5SM -RA BR BKN012 OVC022 12/11 A2979 RMK AO2 RAB09 SLP081 P0009 T01220106
 
KLWS - Lewiston, Idaho, USA
Distance from station: SSW 59mi, 96km
Updated: Sat, 18-Sep-2021 5:56pm PDT
Light rain, Overcast
Light rain, Overcast
 Wind from WNW
Wind: WNW 9 mph , 15 km/h
Temperature: 61°F , 16°C
Dew Point: 54°F , 12°C
Humidity: 77%
Barometer: 29.80 inHg , 1009.1 hPa
Summary: Light Rain
Clouds: Overcast
Visibility: 10 miles , 16 km
Cloud details: Mostly Cloudy 6000 ft
Overcast 7500 ft
2021/09/19 00:56 KLWS 190056Z 29008KT 10SM -RA BKN060 OVC075 16/12 A2980 RMK AO2 RAB42 SLP089 P0000 T01560117
KGEG - Spokane/Metro, Washington, USA
Distance from station: WNW 64mi, 103km
Updated: Sat, 18-Sep-2021 5:53pm PDT
Mostly Cloudy
Mostly Cloudy
 Wind from SW
Wind: SW 10 mph , 17 km/h
Temperature: 52°F , 11°C
Dew Point: 50°F , 10°C
Humidity: 94%
Barometer: 29.77 inHg , 1008.1 hPa
Clouds: Mostly Cloudy
Visibility: 10 miles , 16 km
Cloud details: Partly Cloudy 900 ft
Mostly Cloudy 4900 ft
Mostly Cloudy 6500 ft
2021/09/19 00:53 KGEG 190053Z 22009KT 10SM SCT009 BKN049 BKN065 11/10 A2977 RMK AO2 RAE53 SLP079 P0023 T01110100
 
KSKA - Fairchild Afb, Washington, USA
Distance from station: WNW 68mi, 110km
Updated: Sat, 18-Sep-2021 5:49pm PDT
Light rain, Overcast
Light rain, Overcast
 Wind from S
Wind: S 8 mph , 13 km/h
Temperature: 50°F , 10°C
Wind Chill: 47°F , 8°C
Dew Point: 50°F , 10°C
Humidity: 100%
Barometer: 29.77 inHg , 1008.1 hPa
Summary: Light Rain
Clouds: Overcast
Visibility: 10 miles , 16 km
Cloud details: Few Clouds 800 ft
Partly Cloudy 1600 ft
Partly Cloudy 3000 ft
Overcast 4600 ft
2021/09/19 00:49 KSKA 190049Z AUTO 19007KT 10SM -RA FEW008 SCT016 SCT030 OVC046 10/10 A2977 RMK AO2 RAE45RAB49 SLP081 $